Limerick, Canada
Current Conditions -  °F | °C
As of 8:00 AM on Friday 19 Dec 2014 (Local Time) from CYYN Reporting Station
Clear Clear  
Wind Chill:   Ceiling: Unl
Heat Index: 18°   Visibility: 9mi
Dew Point: 16°   Wind: 8mph
Humidity: 93%   Direction: 200°SSW
Pressure: 29.85"   Gusts: NA
Location:  49.65°N, 106.27°W
Report Text: CYYN 191400Z AUTO 20007KT 9SM CLR M08/M09 A2985 RMK SLP152
Loading
Personal Weather Stations






























Interactive Weather Map New forecast layout! Learn more

10-Day Weather Forecast

Advertisements
Track Severe Weather on mobile